| time (UTC) | temp F | wind direction | speed MPH | gust MPH | rain 1hr in | rain 24hr in | rain mn in | humidity % | barometer mb |
| 20260503021506 | 56 | 113 | 1.0 | 3.0 | 0.02 | 0.20 | 0.15 | 96 | 1012.1 |
| 20260503021006 | 56 | 119 | 0.0 | 3.0 | 0.01 | 0.20 | 0.14 | 96 | 1012.1 |
| 20260503020506 | 56 | 119 | 0.0 | 3.0 | 0.01 | 0.20 | 0.14 | 96 | 1012.0 |
| 20260503020006 | 56 | 119 | 0.0 | 3.0 | 0.02 | 0.20 | 0.14 | 96 | 1012.1 |
| 20260503015505 | 56 | 107 | 0.0 | 3.0 | 0.02 | 0.20 | 0.14 | 96 | 1012.1 |
| 20260503015006 | 56 | 117 | 0.0 | 2.0 | 0.02 | 0.20 | 0.14 | 96 | 1012.0 |
| 20260503014505 | 56 | 117 | 0.0 | 2.0 | 0.02 | 0.20 | 0.14 | 96 | 1011.9 |
| 20260503014005 | 56 | 117 | 1.0 | 3.0 | 0.02 | 0.20 | 0.14 | 96 | 1011.9 |
| 20260503013505 | 56 | 119 | 1.0 | 3.0 | 0.02 | 0.20 | 0.14 | 95 | 1011.9 |
| 20260503013004 | 55 | 103 | 0.0 | 3.0 | 0.02 | 0.20 | 0.14 | 95 | 1012.0 |
| 20260503012504 | 55 | 66 | 0.0 | 1.0 | 0.02 | 0.19 | 0.13 | 95 | 1012.0 |
| 20260503012005 | 55 | 66 | 0.0 | 2.0 | 0.02 | 0.19 | 0.13 | 95 | 1011.9 |
| 20260503011503 | 55 | 66 | 0.0 | 2.0 | 0.02 | 0.19 | 0.13 | 95 | 1012.0 |
| 20260503011003 | 55 | 113 | 0.0 | 1.0 | 0.03 | 0.19 | 0.13 | 95 | 1012.1 |
| 20260503010502 | 55 | 113 | 0.0 | 0.0 | 0.03 | 0.19 | 0.13 | 95 | 1012.2 |
| 20260503010003 | 55 | 113 | 0.0 | 0.0 | 0.02 | 0.18 | 0.13 | 95 | 1012.1 |
| 20260503005501 | 55 | 113 | 0.0 | 1.0 | 0.03 | 0.18 | 0.13 | 95 | 1012.1 |
| 20260503005003 | 55 | 113 | 0.0 | 2.0 | 0.03 | 0.18 | 0.13 | 95 | 1012.2 |
| 20260503004501 | 55 | 113 | 0.0 | 3.0 | 0.04 | 0.18 | 0.13 | 95 | 1012.2 |
| 20260503004059 | 55 | 113 | 0.0 | 3.0 | 0.03 | 0.17 | 0.12 | 95 | 1012.3 |
| 20260503003600 | 55 | 120 | 1.0 | 3.0 | 0.04 | 0.17 | 0.12 | 94 | 1012.3 |
| 20260503003107 | 56 | 113 | 1.0 | 3.0 | 0.04 | 0.17 | 0.12 | 94 | 1012.3 |
| 20260503002559 | 56 | 117 | 0.0 | 3.0 | 0.04 | 0.17 | 0.11 | 94 | 1012.3 |
| 20260503002058 | 56 | 117 | 1.0 | 3.0 | 0.04 | 0.17 | 0.11 | 94 | 1012.4 |
| 20260503001611 | 56 | 118 | 0.0 | 2.0 | 0.04 | 0.17 | 0.11 | 94 | 1012.4 |
| 20260503001057 | 56 | 283 | 0.0 | 0.0 | 0.04 | 0.16 | 0.10 | 94 | 1012.4 |
| 20260503000556 | 56 | 283 | 0.0 | 1.0 | 0.04 | 0.16 | 0.10 | 94 | 1012.5 |
| 20260503000058 | 56 | 283 | 0.0 | 1.0 | 0.04 | 0.16 | 0.10 | 94 | 1012.6 |
| 20260502235555 | 56 | 284 | 0.0 | 1.0 | 0.04 | 0.15 | 0.09 | 94 | 1012.7 |
| 20260502235056 | 56 | 284 | 0.0 | 1.0 | 0.04 | 0.15 | 0.09 | 94 | 1012.6 |
| 20260502234556 | 56 | 284 | 0.0 | 1.0 | 0.04 | 0.14 | 0.09 | 94 | 1012.7 |
| 20260502234055 | 56 | 284 | 0.0 | 3.0 | 0.03 | 0.13 | 0.08 | 94 | 1012.7 |
| 20260502233556 | 56 | 284 | 0.0 | 4.0 | 0.04 | 0.13 | 0.08 | 94 | 1012.6 |
| 20260502233058 | 56 | 24 | 0.0 | 8.0 | 0.04 | 0.13 | 0.08 | 94 | 1012.6 |
| 20260502232555 | 56 | 26 | 0.0 | 8.0 | 0.04 | 0.13 | 0.07 | 93 | 1012.6 |
| 20260502232054 | 56 | 350 | 0.0 | 2.0 | 0.04 | 0.13 | 0.07 | 93 | 1012.7 |
| 20260502231553 | 56 | 85 | 0.0 | 3.0 | 0.05 | 0.13 | 0.07 | 93 | 1012.8 |
| 20260502231052 | 56 | 122 | 0.0 | 3.0 | 0.05 | 0.12 | 0.06 | 93 | 1012.8 |
| 20260502230552 | 56 | 121 | 0.0 | 2.0 | 0.06 | 0.12 | 0.06 | 93 | 1012.7 |
| 20260502230053 | 55 | 75 | 0.0 | 5.0 | 0.06 | 0.12 | 0.06 | 93 | 1012.7 |
| 20260502225551 | 55 | 103 | 0.0 | 5.0 | 0.06 | 0.11 | 0.06 | 92 | 1012.7 |
| 20260502225051 | 55 | 74 | 1.0 | 4.0 | 0.07 | 0.11 | 0.06 | 92 | 1012.8 |
| 20260502224551 | 55 | 58 | 0.0 | 4.0 | 0.07 | 0.10 | 0.05 | 92 | 1013.0 |
| 20260502224049 | 55 | 28 | 0.0 | 4.0 | 0.10 | 0.10 | 0.05 | 92 | 1013.0 |
| 20260502223549 | 55 | 18 | 1.0 | 8.0 | 0.09 | 0.09 | 0.04 | 91 | 1013.1 |
| 20260502223049 | 55 | 118 | 2.0 | 10.0 | 0.09 | 0.09 | 0.04 | 91 | 1013.3 |
| 20260502222548 | 55 | 84 | 2.0 | 10.0 | 0.09 | 0.09 | 0.03 | 90 | 1013.3 |
| 20260502222051 | 55 | 111 | 2.0 | 8.0 | 0.08 | 0.08 | 0.02 | 90 | 1013.2 |
| 20260502221546 | 55 | 67 | 1.0 | 8.0 | 0.08 | 0.08 | 0.02 | 89 | 1013.1 |
| 20260502221044 | 56 | 343 | 2.0 | 5.0 | 0.07 | 0.07 | 0.02 | 88 | 1013.5 |
| 20260502220545 | 56 | 19 | 0.0 | 3.0 | 0.06 | 0.06 | 0.01 | 87 | 1014.2 |
| 20260502220042 | 56 | 16 | 1.0 | 2.0 | 0.06 | 0.06 | 0.00 | 86 | 1014.6 |
| 20260502215542 | 57 | 149 | 0.0 | 6.0 | 0.05 | 0.05 | 0.05 | 84 | 1014.9 |
| 20260502215041 | 57 | 110 | 2.0 | 7.0 | 0.04 | 0.04 | 0.04 | 82 | 1015.0 |
| 20260502214549 | 59 | 167 | 2.0 | 10.0 | 0.02 | 0.02 | 0.02 | 79 | 1015.0 |
| 20260502214041 | 60 | 66 | 3.0 | 11.0 | 0.00 | 0.00 | 0.00 | 75 | 1015.5 |
| 20260502213544 | 60 | 102 | 5.0 | 11.0 | 0.00 | 0.00 | 0.00 | 76 | 1015.1 |
| 20260502213043 | 60 | 38 | 0.0 | 5.0 | 0.00 | 0.00 | 0.00 | 75 | 1013.7 |
| 20260502212541 | 60 | 15 | 2.0 | 5.0 | 0.00 | 0.00 | 0.00 | 74 | 1013.5 |
| 20260502212040 | 60 | 74 | 1.0 | 6.0 | 0.00 | 0.00 | 0.00 | 73 | 1013.6 |
| 20260502211540 | 60 | 56 | 1.0 | 3.0 | 0.00 | 0.00 | 0.00 | 72 | 1013.6 |
| 20260502211039 | 60 | 45 | 1.0 | 5.0 | 0.00 | 0.00 | 0.00 | 71 | 1013.7 |
| 20260502210539 | 60 | 296 | 1.0 | 5.0 | 0.00 | 0.00 | 0.00 | 71 | 1013.7 |
| 20260502210044 | 60 | 55 | 2.0 | 5.0 | 0.00 | 0.00 | 0.00 | 71 | 1013.6 |
| 20260502205539 | 60 | 328 | 0.0 | 4.0 | 0.00 | 0.00 | 0.00 | 71 | 1013.6 |
| 20260502205041 | 60 | 40 | 1.0 | 4.0 | 0.00 | 0.00 | 0.00 | 70 | 1013.9 |
| 20260502204536 | 60 | 51 | 0.0 | 5.0 | 0.00 | 0.00 | 0.00 | 69 | 1014.1 |
| 20260502204037 | 60 | 58 | 2.0 | 5.0 | 0.00 | 0.00 | 0.00 | 69 | 1014.1 |
| 20260502203537 | 60 | 51 | 1.0 | 4.0 | 0.00 | 0.00 | 0.00 | 68 | 1014.1 |
| 20260502203037 | 60 | 56 | 0.0 | 4.0 | 0.00 | 0.00 | 0.00 | 67 | 1014.1 |
| 20260502202535 | 60 | 30 | 1.0 | 3.0 | 0.00 | 0.00 | 0.00 | 66 | 1014.2 |
| 20260502202033 | 60 | 355 | 0.0 | 3.0 | 0.00 | 0.00 | 0.00 | 66 | 1014.3 |
| 20260502201533 | 60 | 70 | 1.0 | 3.0 | 0.00 | 0.00 | 0.00 | 66 | 1014.3 |
| 20260502201034 | 60 | 61 | 0.0 | 3.0 | 0.00 | 0.00 | 0.00 | 66 | 1014.4 |
| 20260502200532 | 60 | 49 | 0.0 | 3.0 | 0.00 | 0.00 | 0.00 | 66 | 1014.5 |
| 20260502200032 | 60 | 302 | 0.0 | 4.0 | 0.00 | 0.00 | 0.00 | 67 | 1014.5 |
| 20260502195534 | 61 | 42 | 1.0 | 3.0 | 0.00 | 0.00 | 0.00 | 68 | 1014.6 |
| 20260502195033 | 61 | 29 | 0.0 | 3.0 | 0.00 | 0.00 | 0.00 | 69 | 1014.6 |
| 20260502194531 | 61 | 55 | 0.0 | 5.0 | 0.00 | 0.00 | 0.00 | 68 | 1014.7 |
| 20260502194033 | 61 | 11 | 1.0 | 5.0 | 0.00 | 0.00 | 0.00 | 66 | 1014.6 |
| 20260502193630 | 61 | 67 | 0.0 | 3.0 | 0.00 | 0.00 | 0.00 | 65 | 1014.7 |
| 20260502193035 | 62 | 49 | 0.0 | 1.0 | 0.00 | 0.00 | 0.00 | 63 | 1014.6 |
| 20260502192531 | 62 | 48 | 0.0 | 0.0 | 0.00 | 0.00 | 0.00 | 63 | 1014.6 |
| 20260502192032 | 62 | 34 | 0.0 | 3.0 | 0.00 | 0.00 | 0.00 | 63 | 1014.6 |
| 20260502191530 | 62 | 16 | 0.0 | 3.0 | 0.00 | 0.00 | 0.00 | 62 | 1014.5 |
| 20260502191029 | 63 | 324 | 0.0 | 2.0 | 0.00 | 0.00 | 0.00 | 61 | 1014.5 |
| 20260502190529 | 63 | 292 | 0.0 | 3.0 | 0.00 | 0.00 | 0.00 | 59 | 1014.6 |
| 20260502190029 | 63 | 292 | 0.0 | 3.0 | 0.00 | 0.00 | 0.00 | 58 | 1014.6 |
| 20260502185532 | 63 | 297 | 0.0 | 0.0 | 0.00 | 0.00 | 0.00 | 57 | 1014.6 |
| 20260502185029 | 63 | 297 | 0.0 | 2.0 | 0.00 | 0.00 | 0.00 | 56 | 1014.7 |
| 20260502184550 | 64 | 297 | 0.0 | 3.0 | 0.00 | 0.00 | 0.00 | 56 | 1014.8 |
| 20260502184028 | 64 | 297 | 1.0 | 3.0 | 0.00 | 0.00 | 0.00 | 55 | 1014.7 |
| 20260502183529 | 64 | 65 | 1.0 | 2.0 | 0.00 | 0.00 | 0.00 | 53 | 1014.7 |
| 20260502183029 | 64 | 296 | 0.0 | 2.0 | 0.00 | 0.00 | 0.00 | 52 | 1014.7 |
| 20260502182528 | 64 | 295 | 0.0 | 3.0 | 0.00 | 0.00 | 0.00 | 52 | 1014.7 |
| 20260502182027 | 64 | 294 | 0.0 | 3.0 | 0.00 | 0.00 | 0.00 | 52 | 1014.7 |
| 20260502181530 | 65 | 340 | 0.0 | 3.0 | 0.00 | 0.00 | 0.00 | 52 | 1014.6 |
| 20260502181028 | 65 | 321 | 1.0 | 4.0 | 0.00 | 0.00 | 0.00 | 51 | 1014.6 |
| 20260502180529 | 65 | 311 | 1.0 | 4.0 | 0.00 | 0.00 | 0.00 | 51 | 1014.6 |
| 20260502170520 | 67 | 315 | 1.0 | 6.0 | 0.00 | 0.00 | 0.00 | 49 | 1015.3 |
| 20260502164021 | 67 | 302 | 1.0 | 8.0 | 0.00 | 0.00 | 0.00 | 47 | 1015.7 |
| 20260502163516 | 68 | 328 | 2.0 | 8.0 | 0.00 | 0.00 | 0.00 | 46 | 1015.8 |
| 20260502163020 | 68 | 344 | 3.0 | 8.0 | 0.00 | 0.00 | 0.00 | 46 | 1015.9 |
| 20260502162515 | 68 | 304 | 3.0 | 6.0 | 0.00 | 0.00 | 0.00 | 46 | 1015.9 |
| 20260502162019 | 68 | 346 | 2.0 | 8.0 | 0.00 | 0.00 | 0.00 | 47 | 1015.9 |
| 20260502161513 | 68 | 281 | 2.0 | 9.0 | 0.00 | 0.00 | 0.00 | 46 | 1016.0 |
| 20260502161013 | 69 | 328 | 2.0 | 9.0 | 0.00 | 0.00 | 0.00 | 47 | 1016.0 |
| 20260502160514 | 69 | 308 | 2.0 | 8.0 | 0.00 | 0.00 | 0.00 | 46 | 1016.0 |
| 20260502152007 | 70 | 302 | 3.0 | 10.0 | 0.00 | 0.00 | 0.00 | 49 | 1016.3 |
| 20260502151509 | 70 | 281 | 4.0 | 10.0 | 0.00 | 0.00 | 0.00 | 49 | 1016.4 |
| 20260502151006 | 69 | 317 | 2.0 | 6.0 | 0.00 | 0.00 | 0.00 | 49 | 1016.4 |
| 20260502150506 | 69 | 313 | 1.0 | 10.0 | 0.00 | 0.00 | 0.00 | 50 | 1016.4 |
| 20260502130553 | 66 | 336 | 3.0 | 8.0 | 0.00 | 0.00 | 0.00 | 62 | 1017.5 |
| 20260502123550 | 67 | 273 | 3.0 | 13.0 | 0.00 | 0.00 | 0.00 | 68 | 1017.7 |
| 20260502123100 | 67 | 321 | 5.0 | 13.0 | 0.00 | 0.00 | 0.00 | 68 | 1017.8 |
| 20260502122548 | 67 | 327 | 4.0 | 12.0 | 0.00 | 0.00 | 0.00 | 68 | 1017.9 |
| 20260502122048 | 68 | 344 | 4.0 | 11.0 | 0.00 | 0.00 | 0.00 | 70 | 1017.9 |
| 20260502121548 | 68 | 334 | 3.0 | 15.0 | 0.00 | 0.00 | 0.00 | 71 | 1017.9 |
| 20260502121047 | 68 | 140 | 4.0 | 15.0 | 0.00 | 0.00 | 0.00 | 71 | 1017.9 |
| 20260502120547 | 69 | 291 | 5.0 | 12.0 | 0.00 | 0.00 | 0.00 | 69 | 1017.9 |
| 20260502115545 | 69 | 292 | 2.0 | 10.0 | 0.00 | 0.00 | 0.00 | 71 | 1018.0 |
| 20260502115045 | 69 | 345 | 2.0 | 7.0 | 0.00 | 0.00 | 0.00 | 71 | 1017.9 |
| 20260502114548 | 69 | 188 | 2.0 | 7.0 | 0.00 | 0.00 | 0.00 | 71 | 1018.0 |
| 20260502114045 | 69 | 116 | 2.0 | 7.0 | 0.00 | 0.00 | 0.00 | 72 | 1018.1 |
| 20260502113547 | 69 | 287 | 2.0 | 6.0 | 0.00 | 0.00 | 0.00 | 71 | 1018.1 |
| 20260502113045 | 69 | 272 | 2.0 | 6.0 | 0.00 | 0.00 | 0.00 | 72 | 1018.2 |
| 20260502112543 | 69 | 244 | 1.0 | 7.0 | 0.00 | 0.00 | 0.00 | 72 | 1018.2 |
| 20260502112041 | 69 | 39 | 1.0 | 8.0 | 0.00 | 0.00 | 0.00 | 74 | 1018.3 |
| 20260502111545 | 68 | 301 | 1.0 | 5.0 | 0.00 | 0.00 | 0.00 | 74 | 1018.3 |
| 20260502111040 | 68 | 280 | 1.0 | 5.0 | 0.00 | 0.00 | 0.00 | 76 | 1018.3 |
| 20260502110540 | 67 | 270 | 1.0 | 9.0 | 0.00 | 0.00 | 0.00 | 78 | 1018.2 |
| 20260502110041 | 67 | 165 | 2.0 | 10.0 | 0.00 | 0.00 | 0.00 | 78 | 1018.3 |
| 20260502105540 | 67 | 315 | 3.0 | 10.0 | 0.00 | 0.00 | 0.00 | 77 | 1018.3 |
| 20260502105040 | 67 | 344 | 3.0 | 10.0 | 0.00 | 0.00 | 0.00 | 77 | 1018.3 |
| 20260502104541 | 67 | 328 | 2.0 | 6.0 | 0.00 | 0.00 | 0.00 | 78 | 1018.3 |
| 20260502104039 | 67 | 300 | 2.0 | 6.0 | 0.00 | 0.00 | 0.00 | 77 | 1018.3 |
| 20260502103538 | 67 | 313 | 1.0 | 8.0 | 0.00 | 0.00 | 0.00 | 77 | 1018.4 |
| 20260502103038 | 67 | 322 | 1.0 | 8.0 | 0.00 | 0.00 | 0.00 | 76 | 1018.4 |
| 20260502102541 | 68 | 333 | 2.0 | 8.0 | 0.00 | 0.00 | 0.00 | 75 | 1018.4 |
| 20260502102038 | 68 | 314 | 1.0 | 5.0 | 0.00 | 0.00 | 0.00 | 74 | 1018.4 |
| 20260502101557 | 68 | 216 | 2.0 | 5.0 | 0.00 | 0.00 | 0.00 | 74 | 1018.4 |
| 20260502101036 | 68 | 247 | 1.0 | 4.0 | 0.00 | 0.00 | 0.00 | 75 | 1018.5 |
| 20260502100535 | 68 | 292 | 1.0 | 6.0 | 0.00 | 0.00 | 0.00 | 75 | 1018.5 |
| 20260502091530 | 66 | 240 | 2.0 | 9.0 | 0.00 | 0.00 | 0.00 | 78 | 1018.5 |
| 20260502091028 | 66 | 168 | 1.0 | 9.0 | 0.00 | 0.00 | 0.00 | 77 | 1018.6 |
| 20260502090531 | 66 | 236 | 3.0 | 5.0 | 0.00 | 0.00 | 0.00 | 79 | 1018.6 |
| 20260502071508 | 60 | 315 | 1.0 | 3.0 | 0.00 | 0.00 | 0.00 | 80 | 1018.7 |
| 20260502071008 | 60 | 221 | 0.0 | 3.0 | 0.00 | 0.00 | 0.00 | 79 | 1018.7 |
| 20260502070506 | 60 | 244 | 0.0 | 3.0 | 0.00 | 0.00 | 0.00 | 78 | 1018.7 |
| 20260502070006 | 60 | 280 | 0.0 | 2.0 | 0.00 | 0.00 | 0.00 | 78 | 1018.8 |
| 20260502065505 | 60 | 202 | 0.0 | 2.0 | 0.00 | 0.00 | 0.00 | 77 | 1018.8 |
| 20260502065004 | 59 | 194 | 0.0 | 3.0 | 0.00 | 0.00 | 0.00 | 77 | 1018.7 |
| 20260502064505 | 59 | 271 | 0.0 | 4.0 | 0.00 | 0.00 | 0.00 | 77 | 1018.8 |
| 20260502064003 | 59 | 186 | 1.0 | 4.0 | 0.00 | 0.00 | 0.00 | 76 | 1018.9 |
| 20260502063502 | 59 | 232 | 0.0 | 3.0 | 0.00 | 0.00 | 0.00 | 77 | 1018.8 |
| 20260502063101 | 59 | 216 | 0.0 | 2.0 | 0.00 | 0.00 | 0.00 | 77 | 1018.7 |
| 20260502063002 | 58 | 182 | 0.0 | 1.0 | 0.00 | 0.00 | 0.00 | 77 | 1018.7 |
| 20260502062559 | 58 | 182 | 0.0 | 1.0 | 0.00 | 0.00 | 0.00 | 76 | 1018.6 |
| 20260502062059 | 58 | 182 | 0.0 | 1.0 | 0.00 | 0.00 | 0.00 | 76 | 1018.6 |
| 20260502061559 | 58 | 182 | 0.0 | 1.0 | 0.00 | 0.00 | 0.00 | 76 | 1018.6 |
| 20260502061057 | 57 | 206 | 0.0 | 2.0 | 0.00 | 0.00 | 0.00 | 76 | 1018.6 |
| 20260502060557 | 57 | 159 | 0.0 | 2.0 | 0.00 | 0.00 | 0.00 | 76 | 1018.6 |
| 20260502060058 | 57 | 156 | 0.0 | 2.0 | 0.00 | 0.00 | 0.00 | 76 | 1018.6 |
| 20260502055558 | 56 | 128 | 0.0 | 1.0 | 0.00 | 0.00 | 0.00 | 75 | 1018.6 |
| 20260502055057 | 56 | 128 | 0.0 | 2.0 | 0.00 | 0.00 | 0.00 | 75 | 1018.6 |
| 20260502054602 | 55 | 128 | 0.0 | 2.0 | 0.00 | 0.00 | 0.00 | 75 | 1018.7 |
| 20260502054057 | 54 | 165 | 0.0 | 0.0 | 0.00 | 0.00 | 0.00 | 74 | 1018.7 |
| 20260502053555 | 54 | 155 | 0.0 | 0.0 | 0.00 | 0.00 | 0.00 | 73 | 1018.7 |
| 20260502053110 | 53 | 155 | 0.0 | 0.0 | 0.00 | 0.00 | 0.00 | 73 | 1018.6 |
| 20260502052552 | 53 | 155 | 0.0 | 0.0 | 0.00 | 0.00 | 0.00 | 73 | 1018.7 |
| 20260502052052 | 53 | 165 | 0.0 | 0.0 | 0.00 | 0.00 | 0.00 | 72 | 1018.7 |
| 20260502051552 | 53 | 175 | 0.0 | 0.0 | 0.00 | 0.00 | 0.00 | 72 | 1018.7 |
| 20260502051051 | 52 | 120 | 0.0 | 0.0 | 0.00 | 0.00 | 0.00 | 72 | 1018.3 |
| 20260502050550 | 52 | 120 | 0.0 | 0.0 | 0.00 | 0.00 | 0.00 | 71 | 1018.3 |
| 20260502050049 | 52 | 120 | 0.0 | 0.0 | 0.00 | 0.00 | 0.00 | 71 | 1018.4 |
| 20260502045548 | 52 | 120 | 0.0 | 0.0 | 0.00 | 0.00 | 0.00 | 71 | 1018.5 |
| 20260502045046 | 52 | 120 | 0.0 | 0.0 | 0.00 | 0.00 | 0.00 | 71 | 1018.5 |
| 20260502044544 | 52 | 120 | 0.0 | 0.0 | 0.00 | 0.00 | 0.00 | 70 | 1018.5 |
| 20260502044043 | 52 | 120 | 0.0 | 0.0 | 0.00 | 0.00 | 0.00 | 70 | 1018.5 |
| 20260502043543 | 52 | 120 | 0.0 | 0.0 | 0.00 | 0.00 | 0.00 | 70 | 1018.5 |
| 20260502043044 | 52 | 122 | 0.0 | 0.0 | 0.00 | 0.00 | 0.00 | 70 | 1018.5 |
| 20260502042542 | 52 | 122 | 0.0 | 0.0 | 0.00 | 0.00 | 0.00 | 69 | 1018.5 |
| 20260502042042 | 52 | 122 | 0.0 | 0.0 | 0.00 | 0.00 | 0.00 | 69 | 1018.5 |
| 20260502041543 | 52 | 122 | 0.0 | 0.0 | 0.00 | 0.00 | 0.00 | 69 | 1018.5 |
| 20260502041040 | 52 | 122 | 0.0 | 0.0 | 0.00 | 0.00 | 0.00 | 69 | 1018.5 |
| 20260502040539 | 52 | 122 | 0.0 | 0.0 | 0.00 | 0.00 | 0.00 | 69 | 1018.5 |
| 20260502040043 | 52 | 122 | 0.0 | 0.0 | 0.00 | 0.00 | 0.00 | 68 | 1018.6 |
| 20260502035539 | 52 | 122 | 0.0 | 0.0 | 0.00 | 0.00 | 0.00 | 67 | 1018.6 |
| 20260502035039 | 53 | 122 | 0.0 | 0.0 | 0.00 | 0.00 | 0.00 | 67 | 1018.6 |
| 20260502034536 | 53 | 122 | 0.0 | 0.0 | 0.00 | 0.00 | 0.00 | 66 | 1018.7 |
| 20260502034035 | 53 | 122 | 0.0 | 0.0 | 0.00 | 0.00 | 0.00 | 66 | 1018.7 |
| 20260502033535 | 53 | 115 | 0.0 | 0.0 | 0.00 | 0.00 | 0.00 | 66 | 1018.6 |
| 20260502033033 | 53 | 115 | 0.0 | 0.0 | 0.00 | 0.00 | 0.00 | 65 | 1018.6 |
| 20260502032532 | 54 | 115 | 0.0 | 2.0 | 0.00 | 0.00 | 0.00 | 65 | 1018.7 |
| 20260502032032 | 54 | 115 | 0.0 | 2.0 | 0.00 | 0.00 | 0.00 | 65 | 1018.7 |
| 20260502031533 | 54 | 115 | 0.0 | 2.0 | 0.00 | 0.00 | 0.00 | 64 | 1018.7 |
| 20260502031031 | 54 | 115 | 0.0 | 2.0 | 0.00 | 0.00 | 0.00 | 63 | 1018.7 |
| 20260502030531 | 54 | 115 | 0.0 | 2.0 | 0.00 | 0.00 | 0.00 | 63 | 1018.8 |
| 20260502030037 | 55 | 115 | 0.0 | 3.0 | 0.00 | 0.00 | 0.00 | 62 | 1018.9 |
| 20260502025530 | 55 | 115 | 1.0 | 3.0 | 0.00 | 0.00 | 0.00 | 62 | 1018.9 |
| 20260502025028 | 55 | 118 | 1.0 | 3.0 | 0.00 | 0.00 | 0.00 | 62 | 1018.9 |
| 20260502024539 | 55 | 117 | 1.0 | 3.0 | 0.00 | 0.00 | 0.00 | 62 | 1018.9 |
| 20260502024029 | 55 | 120 | 1.0 | 3.0 | 0.00 | 0.00 | 0.00 | 62 | 1019.0 |
| 20260502023528 | 55 | 117 | 1.0 | 3.0 | 0.00 | 0.00 | 0.00 | 62 | 1019.0 |
| 20260502023031 | 55 | 117 | 1.0 | 3.0 | 0.00 | 0.00 | 0.00 | 62 | 1019.0 |
| 20260502022528 | 55 | 117 | 1.0 | 4.0 | 0.00 | 0.00 | 0.00 | 62 | 1019.1 |
| 20260502022029 | 55 | 117 | 0.0 | 3.0 | 0.00 | 0.00 | 0.00 | 62 | 1019.1 |